sensor_id;sensor_type;location;lat;lon;timestamp;pressure;altitude;pressure_sealevel;temperature
70415;BMP280;57837;52.064;113.478;2024-01-27T00:02:12;94708.75;;;-21.49
70415;BMP280;57837;52.064;113.478;2024-01-27T00:05:15;94704.59;;;-21.55
70415;BMP280;57837;52.064;113.478;2024-01-27T00:08:19;94708.88;;;-21.37
70415;BMP280;57837;52.064;113.478;2024-01-27T00:11:24;94715.34;;;-21.56
70415;BMP280;57837;52.064;113.478;2024-01-27T00:14:29;94702.53;;;-21.92
70415;BMP280;57837;52.064;113.478;2024-01-27T00:17:33;94705.19;;;-21.93
70415;BMP280;57837;52.064;113.478;2024-01-27T00:20:39;94714.84;;;-22.05
70415;BMP280;57837;52.064;113.478;2024-01-27T00:23:43;94713.53;;;-22.01
70415;BMP280;57837;52.064;113.478;2024-01-27T00:26:47;94715.03;;;-22.13
70415;BMP280;57837;52.064;113.478;2024-01-27T00:29:51;94728.41;;;-22.22
70415;BMP280;57837;52.064;113.478;2024-01-27T00:32:55;94717.47;;;-22.33
70415;BMP280;57837;52.064;113.478;2024-01-27T00:35:58;94734.97;;;-22.36
70415;BMP280;57837;52.064;113.478;2024-01-27T00:39:01;94728.50;;;-22.57
70415;BMP280;57837;52.064;113.478;2024-01-27T00:42:06;94725.88;;;-22.62
70415;BMP280;57837;52.064;113.478;2024-01-27T00:45:10;94719.84;;;-22.59
70415;BMP280;57837;52.064;113.478;2024-01-27T00:48:13;94730.47;;;-22.32
70415;BMP280;57837;52.064;113.478;2024-01-27T00:51:17;94726.13;;;-22.10
70415;BMP280;57837;52.064;113.478;2024-01-27T00:54:21;94726.72;;;-21.95
70415;BMP280;57837;52.064;113.478;2024-01-27T00:57:25;94722.19;;;-21.72
70415;BMP280;57837;52.064;113.478;2024-01-27T01:00:29;94732.50;;;-21.36
70415;BMP280;57837;52.064;113.478;2024-01-27T01:03:33;94724.94;;;-21.28
70415;BMP280;57837;52.064;113.478;2024-01-27T01:06:39;94718.19;;;-21.59
70415;BMP280;57837;52.064;113.478;2024-01-27T01:09:43;94730.28;;;-21.45
70415;BMP280;57837;52.064;113.478;2024-01-27T01:12:47;94736.47;;;-21.29
70415;BMP280;57837;52.064;113.478;2024-01-27T01:15:51;94740.13;;;-20.93
70415;BMP280;57837;52.064;113.478;2024-01-27T01:18:55;94743.75;;;-20.57
70415;BMP280;57837;52.064;113.478;2024-01-27T01:21:58;94735.13;;;-20.35
70415;BMP280;57837;52.064;113.478;2024-01-27T01:25:02;94736.34;;;-20.26
70415;BMP280;57837;52.064;113.478;2024-01-27T01:28:06;94732.66;;;-20.35
70415;BMP280;57837;52.064;113.478;2024-01-27T01:31:10;94730.97;;;-19.85
70415;BMP280;57837;52.064;113.478;2024-01-27T01:34:13;94732.97;;;-19.75
70415;BMP280;57837;52.064;113.478;2024-01-27T01:37:18;94722.25;;;-19.87
70415;BMP280;57837;52.064;113.478;2024-01-27T01:40:23;94723.69;;;-19.54
70415;BMP280;57837;52.064;113.478;2024-01-27T01:43:27;94708.34;;;-19.20
70415;BMP280;57837;52.064;113.478;2024-01-27T01:46:31;94716.66;;;-18.84
70415;BMP280;57837;52.064;113.478;2024-01-27T01:49:36;94715.72;;;-19.01
70415;BMP280;57837;52.064;113.478;2024-01-27T01:52:40;94718.63;;;-19.04
70415;BMP280;57837;52.064;113.478;2024-01-27T01:55:44;94716.56;;;-19.08
70415;BMP280;57837;52.064;113.478;2024-01-27T01:58:50;94715.84;;;-19.15
70415;BMP280;57837;52.064;113.478;2024-01-27T02:01:53;94706.44;;;-19.18
70415;BMP280;57837;52.064;113.478;2024-01-27T02:05:00;94709.78;;;-19.12
70415;BMP280;57837;52.064;113.478;2024-01-27T02:08:05;94697.09;;;-18.97
70415;BMP280;57837;52.064;113.478;2024-01-27T02:11:09;94701.34;;;-18.44
70415;BMP280;57837;52.064;113.478;2024-01-27T02:14:12;94699.88;;;-18.10
70415;BMP280;57837;52.064;113.478;2024-01-27T02:17:16;94695.66;;;-17.98
70415;BMP280;57837;52.064;113.478;2024-01-27T02:20:20;94699.41;;;-17.60
70415;BMP280;57837;52.064;113.478;2024-01-27T02:23:23;94694.53;;;-17.43
70415;BMP280;57837;52.064;113.478;2024-01-27T02:26:27;94698.09;;;-17.51
70415;BMP280;57837;52.064;113.478;2024-01-27T02:29:30;94686.91;;;-17.42
70415;BMP280;57837;52.064;113.478;2024-01-27T02:32:34;94688.94;;;-17.39
70415;BMP280;57837;52.064;113.478;2024-01-27T02:35:38;94684.44;;;-17.42
70415;BMP280;57837;52.064;113.478;2024-01-27T02:38:43;94686.16;;;-17.14
70415;BMP280;57837;52.064;113.478;2024-01-27T02:41:47;94692.84;;;-16.69
70415;BMP280;57837;52.064;113.478;2024-01-27T02:44:51;94682.06;;;-16.13
70415;BMP280;57837;52.064;113.478;2024-01-27T02:47:55;94672.88;;;-16.12
70415;BMP280;57837;52.064;113.478;2024-01-27T02:51:02;94680.03;;;-15.77
70415;BMP280;57837;52.064;113.478;2024-01-27T02:54:07;94668.50;;;-15.44
70415;BMP280;57837;52.064;113.478;2024-01-27T02:57:12;94667.06;;;-15.13
70415;BMP280;57837;52.064;113.478;2024-01-27T03:00:16;94660.34;;;-14.86
70415;BMP280;57837;52.064;113.478;2024-01-27T03:03:21;94659.47;;;-14.69
70415;BMP280;57837;52.064;113.478;2024-01-27T03:06:25;94654.81;;;-14.61
70415;BMP280;57837;52.064;113.478;2024-01-27T03:09:29;94657.25;;;-14.34
70415;BMP280;57837;52.064;113.478;2024-01-27T03:12:33;94647.81;;;-14.32
70415;BMP280;57837;52.064;113.478;2024-01-27T03:15:38;94652.72;;;-14.00
70415;BMP280;57837;52.064;113.478;2024-01-27T03:18:42;94654.56;;;-13.65
70415;BMP280;57837;52.064;113.478;2024-01-27T03:21:46;94653.06;;;-13.66
70415;BMP280;57837;52.064;113.478;2024-01-27T03:24:50;94648.56;;;-13.69
70415;BMP280;57837;52.064;113.478;2024-01-27T03:27:57;94658.78;;;-13.65
70415;BMP280;57837;52.064;113.478;2024-01-27T03:31:03;94650.09;;;-13.63
70415;BMP280;57837;52.064;113.478;2024-01-27T03:34:07;94652.88;;;-13.54
70415;BMP280;57837;52.064;113.478;2024-01-27T03:37:11;94644.94;;;-13.36
70415;BMP280;57837;52.064;113.478;2024-01-27T03:40:18;94646.16;;;-13.38
70415;BMP280;57837;52.064;113.478;2024-01-27T03:43:22;94643.97;;;-13.29
70415;BMP280;57837;52.064;113.478;2024-01-27T03:46:27;94649.97;;;-13.10
70415;BMP280;57837;52.064;113.478;2024-01-27T03:49:31;94642.25;;;-12.83
70415;BMP280;57837;52.064;113.478;2024-01-27T03:52:35;94635.28;;;-12.61
70415;BMP280;57837;52.064;113.478;2024-01-27T03:55:39;94630.75;;;-12.59
70415;BMP280;57837;52.064;113.478;2024-01-27T03:58:42;94623.78;;;-12.47
70415;BMP280;57837;52.064;113.478;2024-01-27T04:01:45;94627.06;;;-12.61
70415;BMP280;57837;52.064;113.478;2024-01-27T04:04:48;94618.81;;;-12.67
70415;BMP280;57837;52.064;113.478;2024-01-27T04:07:52;94625.50;;;-12.57
70415;BMP280;57837;52.064;113.478;2024-01-27T04:10:55;94617.78;;;-12.51
70415;BMP280;57837;52.064;113.478;2024-01-27T04:13:58;94621.75;;;-12.34
70415;BMP280;57837;52.064;113.478;2024-01-27T04:17:02;94609.75;;;-12.27
70415;BMP280;57837;52.064;113.478;2024-01-27T04:20:06;94617.25;;;-12.37
70415;BMP280;57837;52.064;113.478;2024-01-27T04:23:10;94610.81;;;-12.49
70415;BMP280;57837;52.064;113.478;2024-01-27T04:26:13;94608.94;;;-12.07
70415;BMP280;57837;52.064;113.478;2024-01-27T04:29:18;94608.38;;;-11.89
70415;BMP280;57837;52.064;113.478;2024-01-27T04:32:20;94602.47;;;-11.64
70415;BMP280;57837;52.064;113.478;2024-01-27T04:35:25;94592.16;;;-11.13
70415;BMP280;57837;52.064;113.478;2024-01-27T04:38:28;94601.28;;;-10.98
70415;BMP280;57837;52.064;113.478;2024-01-27T04:41:32;94597.75;;;-11.26
70415;BMP280;57837;52.064;113.478;2024-01-27T04:44:40;94596.94;;;-11.51
70415;BMP280;57837;52.064;113.478;2024-01-27T04:47:44;94596.28;;;-11.72
70415;BMP280;57837;52.064;113.478;2024-01-27T04:50:47;94584.16;;;-11.89
70415;BMP280;57837;52.064;113.478;2024-01-27T04:53:52;94578.91;;;-11.87
70415;BMP280;57837;52.064;113.478;2024-01-27T04:56:57;94579.19;;;-11.94
70415;BMP280;57837;52.064;113.478;2024-01-27T05:00:01;94566.94;;;-11.85
70415;BMP280;57837;52.064;113.478;2024-01-27T05:03:04;94568.34;;;-11.74
70415;BMP280;57837;52.064;113.478;2024-01-27T05:06:10;94561.88;;;-11.75
70415;BMP280;57837;52.064;113.478;2024-01-27T05:09:14;94557.31;;;-11.63
70415;BMP280;57837;52.064;113.478;2024-01-27T05:12:19;94560.41;;;-11.42
70415;BMP280;57837;52.064;113.478;2024-01-27T05:15:23;94552.75;;;-11.21
70415;BMP280;57837;52.064;113.478;2024-01-27T05:18:27;94551.84;;;-11.02
70415;BMP280;57837;52.064;113.478;2024-01-27T05:21:31;94552.53;;;-10.96
70415;BMP280;57837;52.064;113.478;2024-01-27T05:24:35;94554.41;;;-10.83
70415;BMP280;57837;52.064;113.478;2024-01-27T05:27:40;94545.72;;;-10.66
70415;BMP280;57837;52.064;113.478;2024-01-27T05:30:44;94549.25;;;-10.44
70415;BMP280;57837;52.064;113.478;2024-01-27T05:33:48;94548.81;;;-10.27
70415;BMP280;57837;52.064;113.478;2024-01-27T05:36:52;94542.31;;;-10.28
70415;BMP280;57837;52.064;113.478;2024-01-27T05:39:57;94537.22;;;-10.23
70415;BMP280;57837;52.064;113.478;2024-01-27T05:43:01;94539.81;;;-10.09
70415;BMP280;57837;52.064;113.478;2024-01-27T05:46:11;94535.41;;;-9.98
70415;BMP280;57837;52.064;113.478;2024-01-27T05:49:16;94545.16;;;-9.97
70415;BMP280;57837;52.064;113.478;2024-01-27T05:52:20;94549.94;;;-9.82
70415;BMP280;57837;52.064;113.478;2024-01-27T05:55:27;94541.22;;;-9.84
70415;BMP280;57837;52.064;113.478;2024-01-27T05:58:31;94528.72;;;-9.84
70415;BMP280;57837;52.064;113.478;2024-01-27T06:01:35;94528.91;;;-9.80
70415;BMP280;57837;52.064;113.478;2024-01-27T06:04:41;94531.88;;;-9.78
70415;BMP280;57837;52.064;113.478;2024-01-27T06:07:46;94519.97;;;-9.35
70415;BMP280;57837;52.064;113.478;2024-01-27T06:10:51;94514.28;;;-9.27
70415;BMP280;57837;52.064;113.478;2024-01-27T06:13:54;94519.22;;;-9.36
70415;BMP280;57837;52.064;113.478;2024-01-27T06:16:58;94502.41;;;-9.35
70415;BMP280;57837;52.064;113.478;2024-01-27T06:20:05;94517.25;;;-9.25
70415;BMP280;57837;52.064;113.478;2024-01-27T06:23:10;94521.31;;;-9.10
70415;BMP280;57837;52.064;113.478;2024-01-27T06:26:15;94528.16;;;-9.02
70415;BMP280;57837;52.064;113.478;2024-01-27T06:29:19;94533.63;;;-9.00
70415;BMP280;57837;52.064;113.478;2024-01-27T06:32:23;94524.63;;;-9.01
70415;BMP280;57837;52.064;113.478;2024-01-27T06:35:27;94525.56;;;-8.83
70415;BMP280;57837;52.064;113.478;2024-01-27T06:38:33;94524.53;;;-8.55
70415;BMP280;57837;52.064;113.478;2024-01-27T06:41:37;94521.84;;;-8.58
70415;BMP280;57837;52.064;113.478;2024-01-27T06:44:41;94526.81;;;-8.45
70415;BMP280;57837;52.064;113.478;2024-01-27T06:47:45;94527.09;;;-8.32
70415;BMP280;57837;52.064;113.478;2024-01-27T06:50:50;94536.34;;;-8.19
70415;BMP280;57837;52.064;113.478;2024-01-27T06:53:54;94536.22;;;-8.00
70415;BMP280;57837;52.064;113.478;2024-01-27T06:57:01;94533.00;;;-7.92
70415;BMP280;57837;52.064;113.478;2024-01-27T07:00:06;94528.69;;;-8.14
70415;BMP280;57837;52.064;113.478;2024-01-27T07:03:11;94537.84;;;-8.18
70415;BMP280;57837;52.064;113.478;2024-01-27T07:06:16;94536.59;;;-8.07
70415;BMP280;57837;52.064;113.478;2024-01-27T07:09:19;94540.84;;;-7.94
70415;BMP280;57837;52.064;113.478;2024-01-27T07:12:23;94540.50;;;-7.79
70415;BMP280;57837;52.064;113.478;2024-01-27T07:15:27;94533.97;;;-7.57
70415;BMP280;57837;52.064;113.478;2024-01-27T07:18:30;94538.41;;;-7.32
70415;BMP280;57837;52.064;113.478;2024-01-27T07:21:34;94542.66;;;-7.41
70415;BMP280;57837;52.064;113.478;2024-01-27T07:24:37;94533.81;;;-7.83
70415;BMP280;57837;52.064;113.478;2024-01-27T07:27:40;94539.69;;;-7.88
70415;BMP280;57837;52.064;113.478;2024-01-27T07:30:45;94540.16;;;-7.86
70415;BMP280;57837;52.064;113.478;2024-01-27T07:33:48;94556.50;;;-8.11
70415;BMP280;57837;52.064;113.478;2024-01-27T07:36:52;94554.88;;;-8.29
70415;BMP280;57837;52.064;113.478;2024-01-27T07:39:55;94558.53;;;-8.49
70415;BMP280;57837;52.064;113.478;2024-01-27T07:42:58;94561.06;;;-8.63
70415;BMP280;57837;52.064;113.478;2024-01-27T07:46:03;94574.03;;;-8.74
70415;BMP280;57837;52.064;113.478;2024-01-27T07:49:09;94573.75;;;-8.86
70415;BMP280;57837;52.064;113.478;2024-01-27T07:52:13;94570.78;;;-8.75
70415;BMP280;57837;52.064;113.478;2024-01-27T07:55:16;94564.94;;;-8.84
70415;BMP280;57837;52.064;113.478;2024-01-27T07:58:20;94569.31;;;-8.89
70415;BMP280;57837;52.064;113.478;2024-01-27T08:01:23;94571.25;;;-8.86
70415;BMP280;57837;52.064;113.478;2024-01-27T08:04:26;94573.59;;;-8.76
70415;BMP280;57837;52.064;113.478;2024-01-27T08:07:30;94569.00;;;-8.74
70415;BMP280;57837;52.064;113.478;2024-01-27T08:10:34;94580.63;;;-8.92
70415;BMP280;57837;52.064;113.478;2024-01-27T08:13:40;94583.69;;;-9.09
70415;BMP280;57837;52.064;113.478;2024-01-27T08:16:44;94588.81;;;-9.33
70415;BMP280;57837;52.064;113.478;2024-01-27T08:19:48;94587.78;;;-9.50
70415;BMP280;57837;52.064;113.478;2024-01-27T08:22:52;94583.22;;;-9.62
70415;BMP280;57837;52.064;113.478;2024-01-27T08:25:56;94581.13;;;-9.74
70415;BMP280;57837;52.064;113.478;2024-01-27T08:29:00;94596.47;;;-9.80
70415;BMP280;57837;52.064;113.478;2024-01-27T08:32:04;94597.69;;;-9.78
70415;BMP280;57837;52.064;113.478;2024-01-27T08:35:08;94590.06;;;-9.87
70415;BMP280;57837;52.064;113.478;2024-01-27T08:38:12;94580.53;;;-9.85
70415;BMP280;57837;52.064;113.478;2024-01-27T08:41:16;94591.63;;;-9.91
70415;BMP280;57837;52.064;113.478;2024-01-27T08:44:19;94587.16;;;-9.94
70415;BMP280;57837;52.064;113.478;2024-01-27T08:47:24;94589.31;;;-9.87
70415;BMP280;57837;52.064;113.478;2024-01-27T08:50:27;94587.38;;;-9.90
70415;BMP280;57837;52.064;113.478;2024-01-27T08:53:30;94590.81;;;-9.86
70415;BMP280;57837;52.064;113.478;2024-01-27T08:56:39;94601.97;;;-9.78
70415;BMP280;57837;52.064;113.478;2024-01-27T08:59:43;94598.41;;;-9.91
70415;BMP280;57837;52.064;113.478;2024-01-27T09:02:46;94596.75;;;-10.01
70415;BMP280;57837;52.064;113.478;2024-01-27T09:05:51;94601.28;;;-10.03
70415;BMP280;57837;52.064;113.478;2024-01-27T09:08:54;94605.50;;;-9.98
70415;BMP280;57837;52.064;113.478;2024-01-27T09:11:57;94613.84;;;-10.08
70415;BMP280;57837;52.064;113.478;2024-01-27T09:15:01;94614.34;;;-10.30
70415;BMP280;57837;52.064;113.478;2024-01-27T09:18:04;94609.63;;;-10.31
70415;BMP280;57837;52.064;113.478;2024-01-27T09:21:09;94616.09;;;-10.30
70415;BMP280;57837;52.064;113.478;2024-01-27T09:24:12;94620.09;;;-10.29
70415;BMP280;57837;52.064;113.478;2024-01-27T09:27:18;94628.38;;;-10.53
70415;BMP280;57837;52.064;113.478;2024-01-27T09:30:21;94628.09;;;-10.80
70415;BMP280;57837;52.064;113.478;2024-01-27T09:33:25;94634.28;;;-11.02
70415;BMP280;57837;52.064;113.478;2024-01-27T09:36:29;94632.19;;;-10.94
70415;BMP280;57837;52.064;113.478;2024-01-27T09:39:33;94633.16;;;-10.85
70415;BMP280;57837;52.064;113.478;2024-01-27T09:42:38;94633.59;;;-11.07
70415;BMP280;57837;52.064;113.478;2024-01-27T09:45:45;94642.97;;;-11.28
70415;BMP280;57837;52.064;113.478;2024-01-27T09:48:49;94633.25;;;-11.35
70415;BMP280;57837;52.064;113.478;2024-01-27T09:51:53;94638.53;;;-11.36
70415;BMP280;57837;52.064;113.478;2024-01-27T09:54:58;94642.69;;;-11.26
70415;BMP280;57837;52.064;113.478;2024-01-27T09:58:04;94641.91;;;-11.22
70415;BMP280;57837;52.064;113.478;2024-01-27T10:01:08;94650.25;;;-11.32
70415;BMP280;57837;52.064;113.478;2024-01-27T10:04:13;94648.81;;;-11.48
70415;BMP280;57837;52.064;113.478;2024-01-27T10:07:19;94651.06;;;-11.46
70415;BMP280;57837;52.064;113.478;2024-01-27T10:10:23;94658.75;;;-11.38
70415;BMP280;57837;52.064;113.478;2024-01-27T10:13:26;94660.78;;;-11.40
70415;BMP280;57837;52.064;113.478;2024-01-27T10:16:43;94650.63;;;-11.53
70415;BMP280;57837;52.064;113.478;2024-01-27T10:19:47;94655.63;;;-11.53
70415;BMP280;57837;52.064;113.478;2024-01-27T10:22:50;94660.09;;;-11.55
70415;BMP280;57837;52.064;113.478;2024-01-27T10:25:53;94667.69;;;-11.76
70415;BMP280;57837;52.064;113.478;2024-01-27T10:29:02;94667.97;;;-11.82
70415;BMP280;57837;52.064;113.478;2024-01-27T10:32:09;94669.72;;;-11.93
70415;BMP280;57837;52.064;113.478;2024-01-27T10:35:13;94676.25;;;-12.02
70415;BMP280;57837;52.064;113.478;2024-01-27T10:38:17;94680.28;;;-12.06
70415;BMP280;57837;52.064;113.478;2024-01-27T10:41:22;94673.28;;;-12.09
70415;BMP280;57837;52.064;113.478;2024-01-27T10:44:28;94678.03;;;-12.23
70415;BMP280;57837;52.064;113.478;2024-01-27T10:47:32;94684.31;;;-12.36
70415;BMP280;57837;52.064;113.478;2024-01-27T10:50:37;94683.59;;;-12.47
70415;BMP280;57837;52.064;113.478;2024-01-27T10:53:49;94678.59;;;-12.41
70415;BMP280;57837;52.064;113.478;2024-01-27T10:56:56;94681.06;;;-12.57
70415;BMP280;57837;52.064;113.478;2024-01-27T11:00:02;94694.06;;;-12.65
70415;BMP280;57837;52.064;113.478;2024-01-27T11:03:08;94692.56;;;-12.66
70415;BMP280;57837;52.064;113.478;2024-01-27T11:06:14;94701.28;;;-12.74
70415;BMP280;57837;52.064;113.478;2024-01-27T11:09:18;94707.25;;;-12.80
70415;BMP280;57837;52.064;113.478;2024-01-27T11:12:23;94704.53;;;-12.88
70415;BMP280;57837;52.064;113.478;2024-01-27T11:15:26;94708.25;;;-12.96
70415;BMP280;57837;52.064;113.478;2024-01-27T11:18:31;94717.94;;;-12.99
70415;BMP280;57837;52.064;113.478;2024-01-27T11:21:35;94709.47;;;-13.09
70415;BMP280;57837;52.064;113.478;2024-01-27T11:24:39;94722.91;;;-13.10
70415;BMP280;57837;52.064;113.478;2024-01-27T11:27:43;94731.59;;;-13.12
70415;BMP280;57837;52.064;113.478;2024-01-27T11:30:48;94725.38;;;-13.20
70415;BMP280;57837;52.064;113.478;2024-01-27T11:33:52;94737.00;;;-13.46
70415;BMP280;57837;52.064;113.478;2024-01-27T11:36:57;94738.19;;;-13.53
70415;BMP280;57837;52.064;113.478;2024-01-27T11:40:04;94742.91;;;-13.62
70415;BMP280;57837;52.064;113.478;2024-01-27T11:43:12;94741.81;;;-13.76
70415;BMP280;57837;52.064;113.478;2024-01-27T11:46:19;94758.44;;;-13.82
70415;BMP280;57837;52.064;113.478;2024-01-27T11:49:23;94758.66;;;-13.89
70415;BMP280;57837;52.064;113.478;2024-01-27T11:52:28;94749.69;;;-13.90
70415;BMP280;57837;52.064;113.478;2024-01-27T11:55:31;94760.25;;;-13.72
70415;BMP280;57837;52.064;113.478;2024-01-27T11:58:35;94774.84;;;-13.86
70415;BMP280;57837;52.064;113.478;2024-01-27T12:01:38;94764.00;;;-14.07
70415;BMP280;57837;52.064;113.478;2024-01-27T12:04:42;94772.75;;;-14.04
70415;BMP280;57837;52.064;113.478;2024-01-27T12:07:48;94766.00;;;-14.09
70415;BMP280;57837;52.064;113.478;2024-01-27T12:10:52;94770.03;;;-14.03
70415;BMP280;57837;52.064;113.478;2024-01-27T12:13:55;94778.13;;;-14.12
70415;BMP280;57837;52.064;113.478;2024-01-27T12:16:58;94776.59;;;-14.19
70415;BMP280;57837;52.064;113.478;2024-01-27T12:20:03;94780.63;;;-14.12
70415;BMP280;57837;52.064;113.478;2024-01-27T12:23:17;94775.09;;;-14.20
70415;BMP280;57837;52.064;113.478;2024-01-27T12:26:29;94773.34;;;-14.24
70415;BMP280;57837;52.064;113.478;2024-01-27T12:29:33;94786.50;;;-14.29
70415;BMP280;57837;52.064;113.478;2024-01-27T12:32:37;94788.44;;;-14.31
70415;BMP280;57837;52.064;113.478;2024-01-27T12:35:40;94792.44;;;-14.30
70415;BMP280;57837;52.064;113.478;2024-01-27T12:39:07;94785.78;;;-14.19
70415;BMP280;57837;52.064;113.478;2024-01-27T12:42:10;94800.44;;;-14.23
70415;BMP280;57837;52.064;113.478;2024-01-27T12:45:14;94800.84;;;-14.36
70415;BMP280;57837;52.064;113.478;2024-01-27T12:48:17;94804.72;;;-14.45
70415;BMP280;57837;52.064;113.478;2024-01-27T12:51:20;94809.94;;;-14.47
70415;BMP280;57837;52.064;113.478;2024-01-27T12:54:24;94813.84;;;-14.51
70415;BMP280;57837;52.064;113.478;2024-01-27T12:57:28;94818.41;;;-14.69
70415;BMP280;57837;52.064;113.478;2024-01-27T13:00:32;94816.47;;;-14.89
70415;BMP280;57837;52.064;113.478;2024-01-27T13:03:36;94812.69;;;-14.92
70415;BMP280;57837;52.064;113.478;2024-01-27T13:06:44;94816.09;;;-14.98
70415;BMP280;57837;52.064;113.478;2024-01-27T13:09:49;94823.22;;;-14.85
70415;BMP280;57837;52.064;113.478;2024-01-27T13:12:52;94816.81;;;-14.81
70415;BMP280;57837;52.064;113.478;2024-01-27T13:15:56;94808.94;;;-14.73
70415;BMP280;57837;52.064;113.478;2024-01-27T13:18:59;94823.31;;;-14.53
70415;BMP280;57837;52.064;113.478;2024-01-27T13:22:02;94824.50;;;-14.55
70415;BMP280;57837;52.064;113.478;2024-01-27T13:25:06;94829.44;;;-14.60
70415;BMP280;57837;52.064;113.478;2024-01-27T13:28:11;94830.81;;;-14.69
70415;BMP280;57837;52.064;113.478;2024-01-27T13:31:16;94833.69;;;-14.83
70415;BMP280;57837;52.064;113.478;2024-01-27T13:34:21;94838.63;;;-14.83
70415;BMP280;57837;52.064;113.478;2024-01-27T13:37:25;94849.09;;;-14.81
70415;BMP280;57837;52.064;113.478;2024-01-27T13:40:28;94850.16;;;-14.93
70415;BMP280;57837;52.064;113.478;2024-01-27T13:43:32;94842.91;;;-15.00
70415;BMP280;57837;52.064;113.478;2024-01-27T13:46:36;94854.25;;;-15.04
70415;BMP280;57837;52.064;113.478;2024-01-27T13:49:39;94856.69;;;-15.09
70415;BMP280;57837;52.064;113.478;2024-01-27T13:52:44;94853.31;;;-15.20
70415;BMP280;57837;52.064;113.478;2024-01-27T13:55:48;94870.19;;;-15.39
70415;BMP280;57837;52.064;113.478;2024-01-27T13:58:53;94872.44;;;-15.54
70415;BMP280;57837;52.064;113.478;2024-01-27T14:01:57;94865.84;;;-15.65
70415;BMP280;57837;52.064;113.478;2024-01-27T14:05:00;94874.41;;;-15.73
70415;BMP280;57837;52.064;113.478;2024-01-27T14:08:04;94874.84;;;-15.93
70415;BMP280;57837;52.064;113.478;2024-01-27T14:11:10;94874.81;;;-16.10
70415;BMP280;57837;52.064;113.478;2024-01-27T14:14:13;94880.94;;;-16.29
70415;BMP280;57837;52.064;113.478;2024-01-27T14:17:17;94874.50;;;-16.42
70415;BMP280;57837;52.064;113.478;2024-01-27T14:20:23;94873.34;;;-16.51
70415;BMP280;57837;52.064;113.478;2024-01-27T14:23:26;94874.88;;;-16.50
70415;BMP280;57837;52.064;113.478;2024-01-27T14:26:30;94876.31;;;-16.37
70415;BMP280;57837;52.064;113.478;2024-01-27T14:29:35;94877.59;;;-16.23
70415;BMP280;57837;52.064;113.478;2024-01-27T14:32:39;94875.53;;;-16.26
70415;BMP280;57837;52.064;113.478;2024-01-27T14:35:44;94878.38;;;-16.34
70415;BMP280;57837;52.064;113.478;2024-01-27T14:38:48;94883.44;;;-16.41
70415;BMP280;57837;52.064;113.478;2024-01-27T14:41:52;94890.19;;;-16.36
70415;BMP280;57837;52.064;113.478;2024-01-27T14:44:56;94885.72;;;-16.39
70415;BMP280;57837;52.064;113.478;2024-01-27T14:48:01;94896.66;;;-16.35
70415;BMP280;57837;52.064;113.478;2024-01-27T14:51:06;94899.59;;;-16.90
70415;BMP280;57837;52.064;113.478;2024-01-27T14:54:10;94901.41;;;-17.09
70415;BMP280;57837;52.064;113.478;2024-01-27T14:57:14;94897.03;;;-17.30
70415;BMP280;57837;52.064;113.478;2024-01-27T15:00:18;94901.63;;;-17.34
70415;BMP280;57837;52.064;113.478;2024-01-27T15:03:23;94905.59;;;-17.21
70415;BMP280;57837;52.064;113.478;2024-01-27T15:06:28;94909.06;;;-17.10
70415;BMP280;57837;52.064;113.478;2024-01-27T15:09:32;94911.84;;;-16.95
70415;BMP280;57837;52.064;113.478;2024-01-27T15:12:36;94907.03;;;-17.02
70415;BMP280;57837;52.064;113.478;2024-01-27T15:15:40;94907.00;;;-17.13
70415;BMP280;57837;52.064;113.478;2024-01-27T15:18:44;94914.75;;;-17.33
70415;BMP280;57837;52.064;113.478;2024-01-27T15:21:48;94921.63;;;-17.35
70415;BMP280;57837;52.064;113.478;2024-01-27T15:24:51;94924.06;;;-17.59
70415;BMP280;57837;52.064;113.478;2024-01-27T15:27:57;94931.38;;;-17.52
70415;BMP280;57837;52.064;113.478;2024-01-27T15:31:01;94931.06;;;-17.44
70415;BMP280;57837;52.064;113.478;2024-01-27T15:34:05;94939.59;;;-17.28
70415;BMP280;57837;52.064;113.478;2024-01-27T15:37:12;94938.53;;;-17.32
70415;BMP280;57837;52.064;113.478;2024-01-27T15:40:16;94944.25;;;-17.50
70415;BMP280;57837;52.064;113.478;2024-01-27T15:43:22;94940.25;;;-17.63
70415;BMP280;57837;52.064;113.478;2024-01-27T15:46:26;94955.41;;;-17.71
70415;BMP280;57837;52.064;113.478;2024-01-27T15:49:30;94958.41;;;-17.69
70415;BMP280;57837;52.064;113.478;2024-01-27T15:52:35;94966.09;;;-17.77
70415;BMP280;57837;52.064;113.478;2024-01-27T15:55:38;94964.28;;;-17.82
70415;BMP280;57837;52.064;113.478;2024-01-27T15:58:43;94965.97;;;-17.82
70415;BMP280;57837;52.064;113.478;2024-01-27T16:01:46;94964.28;;;-17.82
70415;BMP280;57837;52.064;113.478;2024-01-27T16:04:49;94968.66;;;-17.84
70415;BMP280;57837;52.064;113.478;2024-01-27T16:07:53;94966.66;;;-17.75
70415;BMP280;57837;52.064;113.478;2024-01-27T16:10:58;94977.53;;;-17.34
70415;BMP280;57837;52.064;113.478;2024-01-27T16:14:01;94982.09;;;-16.84
70415;BMP280;57837;52.064;113.478;2024-01-27T16:17:05;94985.97;;;-16.53
70415;BMP280;57837;52.064;113.478;2024-01-27T16:20:10;94990.03;;;-16.24
70415;BMP280;57837;52.064;113.478;2024-01-27T16:23:13;94996.94;;;-15.97
70415;BMP280;57837;52.064;113.478;2024-01-27T16:26:17;95002.28;;;-15.89
70415;BMP280;57837;52.064;113.478;2024-01-27T16:29:21;95011.22;;;-15.88
70415;BMP280;57837;52.064;113.478;2024-01-27T16:32:25;95014.44;;;-15.87
70415;BMP280;57837;52.064;113.478;2024-01-27T16:35:32;95017.66;;;-15.87
70415;BMP280;57837;52.064;113.478;2024-01-27T16:38:36;95023.84;;;-15.89
70415;BMP280;57837;52.064;113.478;2024-01-27T16:41:42;95029.03;;;-15.91
70415;BMP280;57837;52.064;113.478;2024-01-27T16:44:46;95025.50;;;-15.95
70415;BMP280;57837;52.064;113.478;2024-01-27T16:47:50;95028.50;;;-15.93
70415;BMP280;57837;52.064;113.478;2024-01-27T16:50:55;95038.72;;;-15.89
70415;BMP280;57837;52.064;113.478;2024-01-27T16:54:00;95040.81;;;-15.81
70415;BMP280;57837;52.064;113.478;2024-01-27T16:57:04;95044.28;;;-15.82
70415;BMP280;57837;52.064;113.478;2024-01-27T17:00:09;95047.97;;;-15.85